Time;durP1;ratioP1;P1;durP2;ratioP2;P2;SDS_P1;SDS_P2;PMS_P1;PMS_P2;Temp;Humidity;BMP_temperature;BMP_pressure;BME280_temperature;BME280_humidity;BME280_pressure;Samples;Min_cycle;Max_cycle;Signal;HPM_P1;HPM_P2
2022/07/09 00:02:03;;;;;;;4.75;2.60;;;17.40;99.90;;;;;;5013096;28;20217;-90
2022/07/09 00:04:29;;;;;;;3.83;2.70;;;17.30;99.90;;;;;;5053377;22;20238;-89
2022/07/09 00:06:58;;;;;;;3.95;3.22;;;17.30;99.90;;;;;;5032633;28;20226;-89
2022/07/09 00:09:25;;;;;;;5.05;3.17;;;17.30;99.90;;;;;;5026010;28;20203;-89
2022/07/09 00:11:52;;;;;;;5.95;4.00;;;17.30;99.90;;;;;;5057395;22;20299;-90
2022/07/09 00:14:19;;;;;;;6.45;4.03;;;17.40;99.90;;;;;;5044079;28;20265;-90
2022/07/09 00:16:48;;;;;;;4.15;3.58;;;17.40;99.90;;;;;;5052500;28;20208;-90
2022/07/09 00:19:15;;;;;;;11.27;4.50;;;17.40;99.90;;;;;;5048285;28;20791;-89
2022/07/09 00:21:42;;;;;;;5.30;4.15;;;17.40;99.90;;;;;;5033024;28;20574;-88
2022/07/09 00:24:10;;;;;;;6.68;4.50;;;17.40;99.90;;;;;;5032281;28;20809;-90
2022/07/09 00:26:36;;;;;;;5.60;4.00;;;17.40;99.90;;;;;;5031248;28;20213;-89
2022/07/09 00:29:04;;;;;;;9.90;5.65;;;17.40;99.90;;;;;;5032491;28;20205;-89
2022/07/09 00:31:31;;;;;;;8.88;4.78;;;17.50;99.90;;;;;;5032532;28;20229;-90
2022/07/09 00:33:59;;;;;;;7.70;5.05;;;17.50;99.90;;;;;;5033560;28;20289;-88
2022/07/09 00:36:26;;;;;;;6.30;4.30;;;17.50;99.90;;;;;;5033172;28;20842;-90
2022/07/09 00:38:53;;;;;;;7.22;4.60;;;17.50;99.90;;;;;;5033521;28;20282;-90
2022/07/09 00:41:20;;;;;;;6.05;4.53;;;17.50;99.90;;;;;;5033353;28;20237;-89
2022/07/09 00:43:48;;;;;;;10.02;5.18;;;17.50;99.90;;;;;;5033414;28;20264;-90
2022/07/09 00:46:15;;;;;;;6.57;5.25;;;17.50;99.90;;;;;;5034090;28;20206;-88
2022/07/09 00:48:42;;;;;;;5.85;4.30;;;17.50;99.90;;;;;;5033203;28;20549;-89
2022/07/09 00:51:12;;;;;;;6.03;5.43;;;17.50;99.90;;;;;;5033467;28;20213;-88
2022/07/09 00:53:39;;;;;;;4.70;4.10;;;17.50;99.90;;;;;;5032959;28;20317;-91
2022/07/09 00:56:07;;;;;;;4.65;3.83;;;17.50;99.90;;;;;;5032660;28;20206;-90
2022/07/09 00:58:36;;;;;;;4.45;3.70;;;17.50;99.90;;;;;;5033250;28;20217;-90
2022/07/09 01:01:03;;;;;;;4.53;3.50;;;17.40;99.90;;;;;;5033145;28;20217;-90
2022/07/09 01:03:30;;;;;;;4.97;3.40;;;17.40;99.90;;;;;;5032660;28;20551;-89
2022/07/09 01:05:57;;;;;;;4.22;3.50;;;17.50;99.90;;;;;;5033023;28;20658;-91
2022/07/09 01:08:26;;;;;;;6.10;3.60;;;17.40;99.90;;;;;;5032986;28;20231;-91
2022/07/09 01:10:54;;;;;;;3.92;3.47;;;17.40;99.90;;;;;;5031956;28;20917;-89
2022/07/09 01:13:21;;;;;;;8.38;3.92;;;17.40;99.90;;;;;;5032829;28;20320;-91
2022/07/09 01:15:48;;;;;;;5.82;3.47;;;17.40;99.90;;;;;;5034863;28;20290;-90
2022/07/09 01:18:15;;;;;;;5.32;3.35;;;17.40;99.90;;;;;;5040860;28;20210;-90
2022/07/09 01:20:44;;;;;;;4.25;3.10;;;17.40;99.90;;;;;;5044169;28;20306;-91
2022/07/09 01:23:11;;;;;;;5.00;3.58;;;17.40;99.90;;;;;;5033264;28;20207;-90
2022/07/09 01:25:40;;;;;;;3.63;3.28;;;17.40;99.90;;;;;;5032427;28;20628;-90
2022/07/09 01:28:09;;;;;;;3.47;2.85;;;17.40;99.90;;;;;;5037546;28;20229;-90
2022/07/09 01:30:38;;;;;;;3.45;2.42;;;17.40;99.90;;;;;;5031794;28;20673;-91
2022/07/09 01:33:05;;;;;;;3.20;2.83;;;17.40;99.90;;;;;;5029354;28;20211;-90
2022/07/09 01:35:32;;;;;;;5.53;2.50;;;17.50;99.90;;;;;;5044754;28;20213;-91
2022/07/09 01:38:01;;;;;;;5.53;2.72;;;17.50;99.90;;;;;;5037182;28;20210;-90
2022/07/09 01:40:28;;;;;;;4.07;2.65;;;17.50;99.90;;;;;;5040463;28;20209;-90
2022/07/09 01:42:55;;;;;;;2.85;2.33;;;17.60;99.90;;;;;;5029933;28;20217;-91
2022/07/09 01:45:22;;;;;;;2.55;2.35;;;17.60;99.90;;;;;;5028820;28;20214;-90
2022/07/09 01:47:49;;;;;;;2.30;2.10;;;17.70;99.90;;;;;;5034925;28;20302;-90
2022/07/09 01:50:16;;;;;;;2.72;1.95;;;17.70;99.90;;;;;;5051790;28;20221;-89
2022/07/09 01:52:43;;;;;;;3.50;2.00;;;17.70;99.90;;;;;;5051219;28;20625;-90
2022/07/09 01:55:12;;;;;;;2.65;2.05;;;17.70;99.90;;;;;;5042216;28;20217;-90
2022/07/09 01:57:39;;;;;;;2.53;1.90;;;17.70;99.90;;;;;;5032029;28;20198;-90
2022/07/09 02:00:07;;;;;;;3.35;2.22;;;17.70;99.90;;;;;;5032026;28;20198;-91
2022/07/09 02:02:34;;;;;;;2.40;2.20;;;17.70;99.90;;;;;;5030641;28;20217;-92
2022/07/09 02:05:01;;;;;;;2.85;2.00;;;17.70;99.90;;;;;;5032044;28;20211;-90
2022/07/09 02:07:28;;;;;;;4.88;3.00;;;17.70;99.90;;;;;;5031605;28;20875;-91
2022/07/09 02:09:55;;;;;;;3.50;2.35;;;17.80;99.90;;;;;;5031611;28;20226;-90
2022/07/09 02:12:24;;;;;;;2.60;2.35;;;17.80;99.90;;;;;;5043159;28;20252;-91
2022/07/09 02:14:51;;;;;;;2.38;2.13;;;17.80;99.90;;;;;;5051861;28;20281;-90
2022/07/09 02:17:18;;;;;;;3.72;2.00;;;17.80;99.90;;;;;;5051321;28;20288;-91
2022/07/09 02:19:45;;;;;;;2.47;2.22;;;17.80;99.90;;;;;;5046801;28;20199;-89
2022/07/09 02:22:12;;;;;;;3.22;2.55;;;17.80;99.90;;;;;;5032441;28;20439;-91
2022/07/09 02:24:39;;;;;;;2.10;1.90;;;17.80;99.90;;;;;;5030405;28;20314;-90
2022/07/09 02:27:07;;;;;;;2.53;2.22;;;17.70;99.90;;;;;;5030508;28;20201;-90
2022/07/09 02:29:35;;;;;;;3.60;2.55;;;17.70;99.90;;;;;;5031868;28;20314;-91
2022/07/09 02:32:02;;;;;;;3.03;2.30;;;17.70;99.90;;;;;;5031851;28;20207;-91
2022/07/09 02:34:30;;;;;;;2.03;1.85;;;17.70;99.90;;;;;;5031228;28;20392;-90
2022/07/09 02:36:57;;;;;;;1.92;1.83;;;17.70;99.90;;;;;;5041256;28;20255;-88
2022/07/09 02:39:24;;;;;;;3.03;2.20;;;17.60;99.90;;;;;;5051385;28;20309;-91
2022/07/09 02:41:52;;;;;;;3.00;2.15;;;17.60;99.90;;;;;;5051269;28;20208;-90
2022/07/09 02:44:19;;;;;;;4.28;2.38;;;17.50;99.90;;;;;;5051164;28;20197;-90
2022/07/09 02:46:47;;;;;;;2.97;1.80;;;17.50;99.90;;;;;;5050568;28;20209;-89
2022/07/09 02:49:14;;;;;;;2.78;2.35;;;17.50;99.90;;;;;;5051217;28;20222;-90
2022/07/09 02:51:41;;;;;;;2.83;1.88;;;17.40;99.90;;;;;;5044449;28;20551;-89
2022/07/09 02:54:08;;;;;;;4.13;1.85;;;17.40;99.90;;;;;;5029086;28;20587;-90
2022/07/09 02:56:35;;;;;;;3.45;1.85;;;17.40;99.90;;;;;;5047067;28;20291;-91
2022/07/09 02:59:03;;;;;;;1.83;1.70;;;17.30;99.90;;;;;;5055440;28;20240;-89
2022/07/09 03:01:30;;;;;;;3.92;2.25;;;17.30;99.90;;;;;;5055148;28;20621;-89
2022/07/09 03:03:59;;;;;;;1.70;1.60;;;17.30;99.90;;;;;;5055390;28;20282;-90
2022/07/09 03:06:26;;;;;;;3.80;2.20;;;17.30;99.90;;;;;;5055501;28;20208;-89
2022/07/09 03:08:53;;;;;;;2.08;1.88;;;17.30;99.90;;;;;;5054269;28;20232;-88
2022/07/09 03:11:20;;;;;;;3.42;2.20;;;17.20;99.90;;;;;;5054219;28;20197;-88
2022/07/09 03:13:47;;;;;;;2.03;1.83;;;17.20;99.90;;;;;;5055204;28;20352;-91
2022/07/09 03:16:14;;;;;;;2.50;1.83;;;17.20;99.90;;;;;;5055236;28;20202;-88
2022/07/09 03:18:41;;;;;;;2.38;2.17;;;17.20;99.90;;;;;;5037803;28;20203;-88
2022/07/09 03:21:11;;;;;;;3.88;2.20;;;17.10;99.90;;;;;;5034996;28;20211;-89
2022/07/09 03:23:39;;;;;;;2.20;2.00;;;17.10;99.90;;;;;;5035406;28;20214;-91
2022/07/09 03:26:06;;;;;;;3.13;2.22;;;17.20;99.90;;;;;;5035217;28;20187;-91
2022/07/09 03:28:35;;;;;;;3.25;1.90;;;17.20;99.90;;;;;;5034773;28;20223;-90
2022/07/09 03:31:02;;;;;;;2.30;2.10;;;17.30;99.90;;;;;;5046645;28;20236;-90
2022/07/09 03:33:29;;;;;;;3.80;2.10;;;17.30;99.90;;;;;;5055273;28;20914;-88
2022/07/09 03:35:56;;;;;;;1.70;1.60;;;17.30;99.90;;;;;;5055477;28;20309;-88
2022/07/09 03:38:25;;;;;;;4.63;2.13;;;17.30;99.90;;;;;;5053895;28;20202;-88
2022/07/09 03:40:52;;;;;;;3.97;2.00;;;17.30;99.90;;;;;;5055864;28;20209;-89
2022/07/09 03:43:21;;;;;;;2.15;1.95;;;17.30;99.90;;;;;;5055889;28;20202;-90
2022/07/09 03:45:47;;;;;;;2.55;2.35;;;17.30;99.90;;;;;;5056478;28;20251;-90
2022/07/09 03:48:14;;;;;;;3.17;2.13;;;17.40;99.90;;;;;;5056158;28;20229;-88
2022/07/09 03:50:41;;;;;;;2.60;2.40;;;17.40;99.90;;;;;;5050854;28;20221;-89
2022/07/09 03:53:08;;;;;;;5.18;2.42;;;17.40;99.90;;;;;;5035765;28;20301;-88
2022/07/09 03:55:37;;;;;;;4.82;2.95;;;17.40;99.90;;;;;;5050993;28;20222;-89
2022/07/09 03:58:04;;;;;;;2.33;2.13;;;17.40;99.90;;;;;;5055205;28;20233;-89
2022/07/09 04:00:31;;;;;;;2.85;1.95;;;17.40;99.90;;;;;;5054603;28;20289;-91
2022/07/09 04:02:58;;;;;;;4.88;2.63;;;17.40;99.90;;;;;;5054236;28;20289;-89
2022/07/09 04:05:25;;;;;;;2.78;2.58;;;17.50;99.90;;;;;;5034295;28;20230;-89
2022/07/09 04:07:52;;;;;;;3.30;3.00;;;17.50;99.90;;;;;;5041908;28;20214;-90
2022/07/09 04:10:19;;;;;;;3.67;2.95;;;17.60;99.90;;;;;;5047047;28;20218;-91
2022/07/09 04:12:48;;;;;;;5.40;4.35;;;17.60;99.90;;;;;;5034455;28;20260;-91
2022/07/09 04:15:15;;;;;;;6.13;3.90;;;17.60;99.90;;;;;;5033985;28;20309;-88
2022/07/09 04:17:42;;;;;;;6.80;4.10;;;17.70;99.90;;;;;;5038491;28;20213;-89
2022/07/09 04:20:10;;;;;;;4.22;3.88;;;17.80;99.90;;;;;;5035970;28;20208;-88
2022/07/09 04:22:37;;;;;;;8.00;4.40;;;17.80;99.90;;;;;;5035407;28;20704;-87
2022/07/09 04:25:05;;;;;;;5.05;3.97;;;17.80;99.90;;;;;;5034118;28;20214;-89
2022/07/09 04:27:32;;;;;;;5.95;5.18;;;17.90;99.90;;;;;;5033605;28;20209;-88
2022/07/09 04:30:00;;;;;;;7.40;4.38;;;18.00;99.90;;;;;;5040222;22;20235;-88
2022/07/09 04:32:27;;;;;;;6.80;4.60;;;18.10;99.90;;;;;;5029368;28;20203;-87
2022/07/09 04:34:54;;;;;;;7.88;5.38;;;18.10;99.90;;;;;;5015879;28;20221;-91
2022/07/09 04:37:21;;;;;;;7.88;5.57;;;18.10;99.90;;;;;;5013970;28;20203;-89
2022/07/09 04:39:48;;;;;;;7.20;5.68;;;18.20;99.90;;;;;;5013023;28;20199;-90
2022/07/09 04:42:15;;;;;;;7.18;6.47;;;18.10;99.90;;;;;;5032041;28;20198;-90
2022/07/09 04:44:42;;;;;;;7.50;6.75;;;18.10;99.90;;;;;;5031812;28;20261;-89
2022/07/09 04:47:11;;;;;;;10.02;7.68;;;18.10;99.90;;;;;;5013904;28;20207;-87
2022/07/09 04:49:38;;;;;;;7.90;6.38;;;18.10;99.90;;;;;;5013059;28;20229;-90
2022/07/09 04:52:06;;;;;;;11.10;8.60;;;18.10;99.90;;;;;;5010986;28;20689;-91
2022/07/09 04:54:33;;;;;;;8.15;6.93;;;18.10;99.90;;;;;;5013503;28;20191;-91
2022/07/09 04:57:00;;;;;;;7.22;6.53;;;18.10;99.90;;;;;;5018463;28;20289;-89
2022/07/09 04:59:27;;;;;;;9.93;7.20;;;18.10;99.90;;;;;;5032845;28;20211;-90
2022/07/09 05:01:54;;;;;;;7.65;6.60;;;18.10;99.90;;;;;;5032176;28;20206;-86
2022/07/09 05:04:22;;;;;;;7.53;6.60;;;18.10;99.90;;;;;;5031773;28;20212;-87
2022/07/09 05:06:49;;;;;;;8.15;7.30;;;18.20;99.90;;;;;;5027548;28;20294;-89
2022/07/09 05:09:16;;;;;;;8.75;7.85;;;18.20;99.90;;;;;;5013095;28;20227;-90
2022/07/09 05:11:43;;;;;;;9.32;8.13;;;18.30;99.90;;;;;;5012840;28;20298;-87
2022/07/09 05:14:10;;;;;;;10.80;8.85;;;18.30;99.90;;;;;;5011986;28;20659;-85
2022/07/09 05:16:37;;;;;;;9.07;8.15;;;18.30;99.90;;;;;;5011071;28;20206;-87
2022/07/09 05:19:04;;;;;;;9.23;7.00;;;18.40;99.90;;;;;;5012542;28;20203;-89
2022/07/09 05:21:33;;;;;;;8.88;6.70;;;18.40;99.90;;;;;;5012325;28;20217;-91
2022/07/09 05:24:01;;;;;;;7.90;5.90;;;18.40;99.90;;;;;;5013078;28;20297;-87
2022/07/09 05:26:29;;;;;;;8.05;5.20;;;18.40;99.90;;;;;;5012094;28;20242;-89
2022/07/09 05:28:56;;;;;;;4.68;4.28;;;18.40;99.90;;;;;;5029236;28;20544;-88
2022/07/09 05:31:24;;;;;;;5.63;4.97;;;18.40;99.90;;;;;;5025135;28;20243;-87
2022/07/09 05:33:51;;;;;;;8.82;5.03;;;18.40;99.90;;;;;;5012970;28;20191;-92
2022/07/09 05:36:18;;;;;;;8.25;5.68;;;18.40;99.90;;;;;;5012399;28;20195;-89
2022/07/09 05:38:47;;;;;;;6.88;5.15;;;18.40;99.90;;;;;;5021029;28;20202;-89
2022/07/09 05:41:14;;;;;;;6.55;4.50;;;18.50;99.90;;;;;;5032739;28;20199;-88
2022/07/09 05:43:41;;;;;;;4.72;3.95;;;18.60;99.90;;;;;;5031704;28;20260;-93
2022/07/09 05:46:08;;;;;;;3.90;3.60;;;18.60;99.90;;;;;;5031538;28;20289;-88
2022/07/09 05:48:35;;;;;;;5.30;3.72;;;18.80;99.90;;;;;;5011743;28;20227;-85
2022/07/09 05:51:01;;;;;;;4.88;3.40;;;18.90;99.90;;;;;;5019550;28;21012;-85
2022/07/09 05:53:28;;;;;;;5.85;3.10;;;19.10;99.90;;;;;;5023096;28;20534;-91
2022/07/09 05:55:57;;;;;;;3.63;2.60;;;19.20;99.90;;;;;;5031070;28;20310;-89
2022/07/09 05:58:25;;;;;;;3.35;2.60;;;19.30;99.90;;;;;;5031773;28;20226;-89
2022/07/09 06:00:52;;;;;;;4.07;2.38;;;19.50;99.90;;;;;;5030911;28;20207;-89
2022/07/09 06:03:19;;;;;;;5.63;2.20;;;19.60;99.90;;;;;;5031145;28;20202;-90
2022/07/09 06:05:46;;;;;;;2.88;1.90;;;19.70;99.90;;;;;;5008650;28;20202;-88
2022/07/09 06:08:13;;;;;;;3.70;1.80;;;19.90;99.90;;;;;;5009254;28;20199;-89
2022/07/09 06:10:40;;;;;;;2.92;1.60;;;20.00;99.90;;;;;;5006395;28;20207;-90
2022/07/09 06:13:08;;;;;;;4.35;1.60;;;20.30;99.90;;;;;;5006322;28;20211;-90
2022/07/09 06:15:35;;;;;;;3.42;1.77;;;20.50;99.90;;;;;;5009306;28;20203;-91
2022/07/09 06:18:02;;;;;;;3.78;1.60;;;20.60;99.90;;;;;;5011055;28;20261;-90
2022/07/09 06:20:29;;;;;;;3.80;1.58;;;20.60;95.70;;;;;;5005998;28;20614;-89
2022/07/09 06:22:56;;;;;;;3.15;1.55;;;20.40;60.70;;;;;;5007684;28;20789;-88
2022/07/09 06:25:23;;;;;;;3.38;1.45;;;20.30;73.70;;;;;;5011084;28;20290;-89
2022/07/09 06:27:50;;;;;;;4.80;1.85;;;20.30;93.80;;;;;;5011219;28;20221;-90
2022/07/09 06:30:18;;;;;;;2.88;1.55;;;20.40;73.60;;;;;;5013439;28;20326;-91
2022/07/09 06:32:45;;;;;;;2.33;1.45;;;20.60;90.80;;;;;;5009895;28;20283;-88
2022/07/09 06:35:12;;;;;;;2.15;1.23;;;20.70;38.60;;;;;;5020044;28;20307;-89
2022/07/09 06:37:41;;;;;;;3.25;1.55;;;20.60;34.80;;;;;;5016008;28;20226;-91
2022/07/09 06:40:09;;;;;;;3.80;1.35;;;20.60;23.90;;;;;;5014682;28;20354;-89
2022/07/09 06:42:36;;;;;;;3.17;1.40;;;20.50;14.20;;;;;;5015772;28;20222;-92
2022/07/09 06:45:03;;;;;;;4.80;2.08;;;20.40;19.00;;;;;;5016648;28;20294;-88
2022/07/09 06:47:31;;;;;;;3.00;1.27;;;20.40;11.60;;;;;;5026547;28;20523;-90
2022/07/09 06:49:58;;;;;;;2.90;1.52;;;20.40;15.60;;;;;;5034974;28;20241;-90
2022/07/09 06:52:25;;;;;;;6.07;1.52;;;20.30;23.40;;;;;;5035288;28;20209;-93
2022/07/09 06:54:52;;;;;;;3.85;1.20;;;20.20;16.90;;;;;;5035638;28;20241;-93
2022/07/09 06:57:19;;;;;;;3.72;1.30;;;20.20;27.30;;;;;;5017729;28;20278;-91
2022/07/09 06:59:46;;;;;;;3.47;1.33;;;20.20;24.30;;;;;;5015210;28;20513;-92
2022/07/09 07:02:15;;;;;;;3.30;1.75;;;20.30;17.80;;;;;;5038385;22;20234;-90
2022/07/09 07:04:58;;;;;;;4.05;1.45;;;20.30;21.50;;;;;;5046957;28;20237;-93
2022/07/09 07:07:25;;;;;;;3.97;1.42;;;20.30;5.40;;;;;;5049964;28;20198;-95
2022/07/09 07:09:52;;;;;;;4.97;1.73;;;20.30;1.20;;;;;;5046497;28;20225;-93
2022/07/09 07:12:18;;;;;;;6.82;1.67;;;20.30;7.00;;;;;;5056362;28;20212;-90
2022/07/09 07:14:45;;;;;;;7.35;1.70;;;20.30;1.00;;;;;;5055175;28;20218;-91
2022/07/09 07:17:12;;;;;;;4.40;1.67;;;20.20;1.00;;;;;;5051449;28;20237;-92
2022/07/09 07:19:40;;;;;;;3.72;1.60;;;20.20;1.00;;;;;;5054311;28;20209;-94
2022/07/09 07:22:09;;;;;;;4.25;1.65;;;20.30;5.20;;;;;;5059272;28;20216;-93
2022/07/09 07:24:36;;;;;;;5.03;2.25;;;20.40;6.20;;;;;;5044165;28;20215;-92
2022/07/09 07:27:03;;;;;;;3.38;1.30;;;20.40;1.00;;;;;;5034889;28;20281;-87
2022/07/09 07:29:30;;;;;;;3.95;1.33;;;20.50;1.00;;;;;;5035207;28;20241;-88
2022/07/09 07:31:57;;;;;;;5.20;1.60;;;20.50;1.00;;;;;;5035087;28;20207;-89
2022/07/09 07:34:24;;;;;;;3.55;1.42;;;20.50;1.00;;;;;;5034325;28;20210;-90
2022/07/09 07:36:52;;;;;;;7.47;1.70;;;20.50;1.00;;;;;;5034350;28;20552;-88
2022/07/09 07:39:21;;;;;;;6.55;2.00;;;20.50;1.00;;;;;;5034061;28;20217;-91
2022/07/09 07:41:48;;;;;;;5.30;1.65;;;20.50;1.00;;;;;;5034308;28;20653;-92
2022/07/09 07:44:15;;;;;;;6.20;1.67;;;20.50;1.00;;;;;;5034624;28;20265;-91
2022/07/09 07:46:42;;;;;;;7.32;1.70;;;20.50;1.00;;;;;;5033899;28;20217;-91
2022/07/09 07:49:09;;;;;;;6.47;1.60;;;20.50;1.00;;;;;;5028963;28;20226;-90
2022/07/09 07:51:36;;;;;;;7.22;1.60;;;20.60;1.00;;;;;;5034064;28;20198;-91
2022/07/09 07:54:03;;;;;;;4.65;1.70;;;20.80;1.00;;;;;;5034687;28;20293;-92
2022/07/09 07:56:33;;;;;;;5.97;1.73;;;20.90;1.00;;;;;;5034507;28;20210;-89
2022/07/09 07:59:00;;;;;;;3.78;1.40;;;21.10;1.00;;;;;;5037595;28;20589;-94
2022/07/09 08:01:27;;;;;;;4.50;1.58;;;21.20;1.00;;;;;;5054073;28;20212;-87
2022/07/09 08:03:54;;;;;;;3.97;1.45;;;21.30;1.00;;;;;;5054203;28;20289;-89
2022/07/09 08:06:22;;;;;;;7.03;1.52;;;21.40;1.00;;;;;;5053993;28;20263;-88
2022/07/09 08:08:49;;;;;;;6.75;1.50;;;21.40;1.00;;;;;;5051865;28;20214;-89
2022/07/09 08:11:16;;;;;;;6.07;2.05;;;21.60;1.00;;;;;;5034280;28;20201;-91
2022/07/09 08:13:45;;;;;;;6.78;1.75;;;21.60;1.00;;;;;;5034309;28;20233;-89
2022/07/09 08:16:12;;;;;;;4.32;1.75;;;21.70;1.00;;;;;;5034523;28;20298;-89
2022/07/09 08:18:39;;;;;;;7.15;2.20;;;21.70;1.00;;;;;;5033429;28;20217;-91
2022/07/09 08:21:06;;;;;;;7.32;1.65;;;21.80;1.00;;;;;;5033500;28;20195;-87
2022/07/09 08:23:50;;;;;;;7.30;1.60;;;21.80;1.00;;;;;;5034375;28;20269;-90
2022/07/09 08:26:19;;;;;;;7.97;2.05;;;21.90;99.90;;;;;;5033959;28;20195;-90
2022/07/09 08:28:47;;;;;;;5.65;1.67;;;22.00;99.90;;;;;;5033399;28;20604;-88
2022/07/09 08:31:14;;;;;;;3.13;1.50;;;21.90;99.90;;;;;;5033678;28;20227;-94
2022/07/09 08:33:41;;;;;;;4.07;1.85;;;21.70;99.90;;;;;;5035658;28;20203;-92
2022/07/09 08:36:09;;;;;;;4.93;1.85;;;21.80;99.90;;;;;;5054331;28;20289;-89
2022/07/09 08:38:36;;;;;;;3.97;1.58;;;21.90;99.90;;;;;;5054279;28;20209;-87
2022/07/09 08:41:05;;;;;;;3.08;1.30;;;22.00;99.90;;;;;;5053807;28;20313;-92
2022/07/09 08:43:34;;;;;;;4.78;1.58;;;22.00;99.90;;;;;;5037845;28;20297;-89
2022/07/09 08:46:02;;;;;;;5.20;1.58;;;22.10;46.60;;;;;;5032968;28;20234;-88
2022/07/09 08:48:33;;;;;;;5.82;1.77;;;22.30;79.50;;;;;;5044612;28;20316;-88
2022/07/09 08:51:00;;;;;;;3.42;1.27;;;22.30;99.90;;;;;;5053984;28;20301;-87
2022/07/09 08:53:29;;;;;;;5.72;1.58;;;22.40;99.90;;;;;;5035650;28;20215;-91
2022/07/09 08:55:56;;;;;;;7.40;1.48;;;22.60;1.00;;;;;;5034461;28;20218;-91
2022/07/09 08:58:25;;;;;;;5.30;1.70;;;22.80;1.00;;;;;;5034206;28;20226;-94
2022/07/09 09:00:52;;;;;;;7.00;1.75;;;22.90;1.00;;;;;;5032939;28;20238;-83
2022/07/09 09:03:20;;;;;;;3.25;1.38;;;23.30;99.90;;;;;;5034108;28;20634;-90
2022/07/09 09:06:01;;;;;;;3.85;1.80;;;23.40;1.00;;;;;;5047523;28;20236;-89
2022/07/09 09:08:29;;;;;;;15.73;2.45;;;23.70;99.90;;;;;;5049504;28;20217;-86
2022/07/09 09:10:55;;;;;;;4.60;1.73;;;23.50;99.90;;;;;;5036341;28;20514;-91
2022/07/09 09:13:22;;;;;;;6.38;1.52;;;23.60;99.90;;;;;;5035339;28;20265;-85
2022/07/09 09:15:49;;;;;;;3.42;1.33;;;23.50;1.00;;;;;;5034624;28;20570;-85
2022/07/09 09:18:17;;;;;;;3.90;1.40;;;23.10;1.00;;;;;;5032087;28;20207;-87
2022/07/09 09:20:48;;;;;;;6.07;2.03;;;23.00;1.00;;;;;;5029494;28;20202;-89
2022/07/09 09:23:18;;;;;;;7.78;1.70;;;22.70;52.20;;;;;;5030325;28;20210;-90
2022/07/09 09:25:45;;;;;;;4.60;1.33;;;22.60;99.90;;;;;;5029694;28;20213;-90
2022/07/09 09:28:14;;;;;;;3.15;1.23;;;22.20;29.10;;;;;;5032701;28;20206;-93
2022/07/09 09:30:44;;;;;;;3.70;1.40;;;22.20;1.00;;;;;;5032852;28;20232;-88
2022/07/09 09:33:14;;;;;;;5.15;1.73;;;22.40;1.00;;;;;;5035425;28;20669;-91
2022/07/09 09:35:44;;;;;;;5.78;1.60;;;22.40;99.90;;;;;;5033598;28;20253;-88
2022/07/09 09:38:12;;;;;;;2.72;1.35;;;22.40;99.90;;;;;;5034038;28;20210;-86
2022/07/09 09:40:45;;;;;;;6.28;1.95;;;22.20;96.40;;;;;;5032875;28;20357;-89
2022/07/09 09:43:12;;;;;;;4.57;1.80;;;22.10;1.00;;;;;;5031678;28;20673;-89
2022/07/09 09:45:39;;;;;;;3.85;1.40;;;22.20;1.00;;;;;;5034347;28;20239;-91
2022/07/09 09:48:07;;;;;;;5.13;1.90;;;22.30;99.90;;;;;;5052421;28;20201;-88
2022/07/09 09:50:36;;;;;;;3.05;1.30;;;22.40;1.00;;;;;;5046409;28;20218;-90
2022/07/09 09:53:04;;;;;;;5.82;1.58;;;22.50;1.00;;;;;;5033870;28;20789;-91
2022/07/09 09:55:33;;;;;;;6.38;1.55;;;22.70;99.90;;;;;;5032938;28;20281;-90
2022/07/09 09:58:01;;;;;;;4.47;1.85;;;22.40;99.90;;;;;;5033760;28;20541;-87
2022/07/09 10:00:28;;;;;;;5.70;1.60;;;22.30;1.00;;;;;;5033025;28;20215;-93
2022/07/09 10:02:55;;;;;;;5.13;1.77;;;22.30;1.00;;;;;;5035174;28;20314;-94
2022/07/09 10:05:22;;;;;;;3.80;1.55;;;22.40;99.90;;;;;;5048811;28;20305;-90
2022/07/09 10:07:49;;;;;;;6.28;1.77;;;22.30;1.00;;;;;;5039047;28;20290;-93
2022/07/09 10:10:21;;;;;;;5.03;1.50;;;22.30;1.00;;;;;;5044097;28;20241;-86
2022/07/09 10:12:49;;;;;;;4.82;1.40;;;22.40;9.00;;;;;;5052789;28;20208;-92
2022/07/09 10:15:24;;;;;;;6.43;1.67;;;22.60;99.90;;;;;;5053017;28;20284;-92
2022/07/09 10:17:51;;;;;;;5.40;1.60;;;22.60;1.00;;;;;;5052866;28;20205;-90
2022/07/09 10:20:18;;;;;;;4.13;1.65;;;22.50;1.00;;;;;;5052033;28;20504;-90
2022/07/09 10:22:46;;;;;;;2.33;1.25;;;22.40;1.00;;;;;;5053115;28;20307;-91
2022/07/09 10:25:23;;;;;;;2.33;1.25;;;22.50;1.00;;;;;;5043727;28;20579;-85
2022/07/09 10:27:51;;;;;;;4.40;1.45;;;22.60;1.00;;;;;;5033299;28;20201;-91
2022/07/09 10:30:26;;;;;;;5.60;1.60;;;22.50;1.00;;;;;;5034102;28;20250;-92
2022/07/09 10:33:05;;;;;;;3.70;1.63;;;22.50;99.90;;;;;;5036196;28;20266;-90
2022/07/09 10:35:32;;;;;;;4.95;1.90;;;22.70;1.00;;;;;;5033411;28;20301;-92
2022/07/09 10:37:59;;;;;;;8.07;1.50;;;22.70;1.00;;;;;;5044568;28;20301;-89
2022/07/09 10:40:27;;;;;;;4.70;1.70;;;22.80;99.90;;;;;;5055025;28;20202;-87
2022/07/09 10:43:03;;;;;;;8.20;2.08;;;22.80;99.90;;;;;;5060288;28;20366;-86
2022/07/09 10:45:37;;;;;;;9.23;2.40;;;23.00;1.00;;;;;;5063234;28;20197;-90
2022/07/09 10:48:06;;;;;;;4.32;1.50;;;22.90;99.90;;;;;;5062911;28;20239;-87
2022/07/09 10:50:40;;;;;;;3.53;1.45;;;22.70;1.00;;;;;;5062687;28;20226;-84
2022/07/09 10:53:07;;;;;;;4.18;1.58;;;22.80;99.90;;;;;;5064934;28;20246;-91
2022/07/09 10:55:35;;;;;;;4.25;1.70;;;22.80;1.00;;;;;;5047632;28;20234;-90
2022/07/09 10:58:07;;;;;;;5.60;1.88;;;23.00;99.90;;;;;;5037650;28;20241;-89
2022/07/09 11:00:35;;;;;;;4.40;1.60;;;23.20;1.00;;;;;;5029480;28;20209;-89
2022/07/09 11:03:04;;;;;;;6.90;1.50;;;23.20;1.00;;;;;;5028800;28;20296;-88
2022/07/09 11:05:32;;;;;;;8.45;2.20;;;23.00;99.90;;;;;;5031037;28;20229;-90
2022/07/09 11:08:05;;;;;;;6.30;1.63;;;23.00;1.00;;;;;;5026821;28;20206;-87
2022/07/09 11:10:35;;;;;;;4.55;2.00;;;22.90;99.90;;;;;;5027769;28;20334;-93
2022/07/09 11:13:06;;;;;;;4.40;1.58;;;22.80;1.00;;;;;;5028786;28;20226;-91
2022/07/09 11:15:34;;;;;;;6.22;2.05;;;22.90;1.00;;;;;;5030062;28;20229;-85
2022/07/09 11:18:03;;;;;;;7.15;1.60;;;23.00;99.90;;;;;;5031610;28;20214;-84
2022/07/09 11:20:32;;;;;;;6.25;1.98;;;22.80;99.90;;;;;;5031736;28;20206;-88
2022/07/09 11:23:00;;;;;;;4.72;1.95;;;22.70;99.90;;;;;;5031094;28;20572;-85
2022/07/09 11:25:27;;;;;;;4.47;1.90;;;22.70;99.90;;;;;;5033797;28;20225;-91
2022/07/09 11:27:55;;;;;;;3.75;1.30;;;22.90;99.90;;;;;;5044208;28;20206;-91
2022/07/09 11:30:24;;;;;;;5.32;1.75;;;23.20;43.60;;;;;;5034986;28;20234;-88
2022/07/09 11:32:51;;;;;;;3.67;1.40;;;23.60;1.00;;;;;;5035423;28;20230;-91
2022/07/09 11:35:29;;;;;;;5.97;1.65;;;23.90;99.90;;;;;;5035255;28;20206;-90
2022/07/09 11:37:57;;;;;;;4.38;1.67;;;24.00;1.00;;;;;;5035682;28;20206;-88
2022/07/09 11:40:24;;;;;;;4.53;1.70;;;24.20;1.00;;;;;;5034493;28;20198;-96
2022/07/09 11:42:52;;;;;;;6.35;1.83;;;24.00;1.00;;;;;;5035106;28;20240;-92
2022/07/09 11:45:25;;;;;;;5.88;1.80;;;24.00;1.00;;;;;;5044830;28;20207;-94
2022/07/09 11:48:03;;;;;;;7.22;2.08;;;24.10;1.00;;;;;;5055608;28;20210;-92
2022/07/09 11:50:30;;;;;;;3.85;1.40;;;24.30;1.00;;;;;;5054478;28;20225;-92
2022/07/09 11:52:57;;;;;;;9.55;1.92;;;24.40;1.00;;;;;;5037047;28;20248;-89
2022/07/09 11:55:30;;;;;;;8.02;1.75;;;24.40;1.00;;;;;;5039507;28;20216;-89
2022/07/09 11:58:01;;;;;;;5.57;1.98;;;24.50;1.00;;;;;;5055736;28;20197;-86
2022/07/09 12:00:31;;;;;;;6.05;1.90;;;24.60;1.00;;;;;;5054930;28;20509;-88
2022/07/09 12:03:00;;;;;;;7.88;2.10;;;24.70;99.90;;;;;;5054359;28;20254;-90
2022/07/09 12:05:30;;;;;;;6.40;1.60;;;24.60;99.90;;;;;;5054165;28;20218;-95
2022/07/09 12:07:57;;;;;;;5.22;1.73;;;24.60;1.00;;;;;;5054153;28;20202;-87
2022/07/09 12:10:29;;;;;;;9.43;2.30;;;24.30;1.00;;;;;;5054297;28;20279;-92
2022/07/09 12:12:56;;;;;;;9.68;2.22;;;24.20;99.90;;;;;;5038301;28;20210;-89
2022/07/09 12:15:23;;;;;;;7.28;2.33;;;24.20;1.00;;;;;;5034221;28;20208;-86
2022/07/09 12:17:55;;;;;;;8.10;2.00;;;24.10;1.00;;;;;;5042789;28;20220;-86
2022/07/09 12:20:24;;;;;;;8.05;1.73;;;24.10;99.90;;;;;;5054132;28;20206;-87
2022/07/09 12:22:51;;;;;;;6.97;1.95;;;24.30;1.00;;;;;;5054522;28;20214;-89
2022/07/09 12:25:19;;;;;;;6.07;1.90;;;24.70;99.90;;;;;;5045711;28;20591;-90
2022/07/09 12:27:46;;;;;;;8.40;2.17;;;24.60;99.90;;;;;;5032537;28;20203;-90
2022/07/09 12:30:13;;;;;;;3.75;1.75;;;24.40;99.90;;;;;;5032580;28;20711;-86
2022/07/09 12:32:41;;;;;;;5.80;1.60;;;23.90;99.90;;;;;;5033355;28;20302;-91
2022/07/09 12:35:10;;;;;;;6.00;1.83;;;23.70;1.00;;;;;;5031444;28;20991;-90
2022/07/09 12:37:38;;;;;;;7.00;1.90;;;23.70;1.00;;;;;;5050833;28;20214;-88
2022/07/09 12:40:07;;;;;;;7.30;2.20;;;23.60;1.00;;;;;;5051783;28;20220;-88
2022/07/09 12:42:35;;;;;;;6.78;1.30;;;23.70;1.00;;;;;;5045903;28;20222;-86
2022/07/09 12:45:02;;;;;;;7.25;1.80;;;23.60;99.90;;;;;;5050593;28;20299;-85
2022/07/09 12:47:29;;;;;;;3.85;1.50;;;23.40;1.00;;;;;;5046834;28;20267;-84
2022/07/09 12:50:04;;;;;;;7.28;1.60;;;23.70;99.90;;;;;;5046513;28;20212;-88
2022/07/09 12:52:33;;;;;;;6.57;1.50;;;23.90;1.00;;;;;;5051590;28;20229;-85
2022/07/09 12:55:01;;;;;;;4.28;1.50;;;23.80;1.00;;;;;;5050477;28;20636;-83